sensor_id;sensor_type;location;lat;lon;timestamp;P1;durP1;ratioP1;P2;durP2;ratioP2
568;SDS011;269;48.884;9.192;2023-02-03T00:02:02;2.38;;;1.70;;
568;SDS011;269;48.884;9.192;2023-02-03T00:04:29;2.60;;;1.55;;
568;SDS011;269;48.884;9.192;2023-02-03T00:06:56;2.85;;;1.58;;
568;SDS011;269;48.884;9.192;2023-02-03T00:09:23;3.10;;;1.90;;
568;SDS011;269;48.884;9.192;2023-02-03T00:11:51;4.13;;;2.22;;
568;SDS011;269;48.884;9.192;2023-02-03T00:14:20;4.15;;;1.75;;
568;SDS011;269;48.884;9.192;2023-02-03T00:16:47;2.25;;;1.58;;
568;SDS011;269;48.884;9.192;2023-02-03T00:19:14;1.63;;;1.40;;
568;SDS011;269;48.884;9.192;2023-02-03T00:21:41;2.33;;;1.60;;
568;SDS011;269;48.884;9.192;2023-02-03T00:24:08;1.80;;;1.70;;
568;SDS011;269;48.884;9.192;2023-02-03T00:26:39;1.88;;;1.50;;
568;SDS011;269;48.884;9.192;2023-02-03T00:29:07;3.60;;;2.00;;
568;SDS011;269;48.884;9.192;2023-02-03T00:31:35;3.53;;;1.75;;
568;SDS011;269;48.884;9.192;2023-02-03T00:34:02;1.95;;;1.75;;
568;SDS011;269;48.884;9.192;2023-02-03T00:36:30;3.20;;;1.60;;
568;SDS011;269;48.884;9.192;2023-02-03T00:38:56;1.45;;;1.35;;
568;SDS011;269;48.884;9.192;2023-02-03T00:41:27;1.60;;;1.42;;
568;SDS011;269;48.884;9.192;2023-02-03T00:43:55;1.80;;;1.50;;
568;SDS011;269;48.884;9.192;2023-02-03T00:46:22;3.13;;;1.50;;
568;SDS011;269;48.884;9.192;2023-02-03T00:48:50;2.67;;;1.77;;
568;SDS011;269;48.884;9.192;2023-02-03T00:51:17;2.47;;;1.42;;
568;SDS011;269;48.884;9.192;2023-02-03T00:53:46;2.20;;;2.00;;
568;SDS011;269;48.884;9.192;2023-02-03T00:56:13;1.52;;;1.42;;
568;SDS011;269;48.884;9.192;2023-02-03T00:58:40;1.90;;;1.80;;
568;SDS011;269;48.884;9.192;2023-02-03T01:01:08;2.13;;;1.70;;
568;SDS011;269;48.884;9.192;2023-02-03T01:03:35;2.40;;;1.90;;
568;SDS011;269;48.884;9.192;2023-02-03T01:06:11;2.05;;;1.85;;
568;SDS011;269;48.884;9.192;2023-02-03T01:08:39;4.30;;;2.20;;
568;SDS011;269;48.884;9.192;2023-02-03T01:11:07;3.83;;;2.60;;
568;SDS011;269;48.884;9.192;2023-02-03T01:13:35;5.47;;;2.13;;
568;SDS011;269;48.884;9.192;2023-02-03T01:16:02;1.80;;;1.70;;
568;SDS011;269;48.884;9.192;2023-02-03T01:18:32;2.00;;;1.80;;
568;SDS011;269;48.884;9.192;2023-02-03T01:21:03;3.28;;;2.20;;
568;SDS011;269;48.884;9.192;2023-02-03T01:23:32;2.50;;;2.30;;
568;SDS011;269;48.884;9.192;2023-02-03T01:26:01;2.83;;;2.55;;
568;SDS011;269;48.884;9.192;2023-02-03T01:28:28;3.28;;;2.45;;
568;SDS011;269;48.884;9.192;2023-02-03T01:30:55;3.28;;;2.58;;
568;SDS011;269;48.884;9.192;2023-02-03T01:33:23;3.88;;;2.92;;
568;SDS011;269;48.884;9.192;2023-02-03T01:35:50;2.95;;;2.65;;
568;SDS011;269;48.884;9.192;2023-02-03T01:38:16;2.30;;;2.10;;
568;SDS011;269;48.884;9.192;2023-02-03T01:40:45;3.92;;;2.90;;
568;SDS011;269;48.884;9.192;2023-02-03T01:43:26;3.85;;;2.83;;
568;SDS011;269;48.884;9.192;2023-02-03T01:45:54;4.40;;;2.78;;
568;SDS011;269;48.884;9.192;2023-02-03T01:48:21;2.70;;;2.10;;
568;SDS011;269;48.884;9.192;2023-02-03T01:50:49;2.42;;;2.22;;
568;SDS011;269;48.884;9.192;2023-02-03T01:53:16;4.15;;;2.20;;
568;SDS011;269;48.884;9.192;2023-02-03T01:55:45;2.92;;;2.15;;
568;SDS011;269;48.884;9.192;2023-02-03T01:58:16;2.88;;;2.22;;
568;SDS011;269;48.884;9.192;2023-02-03T02:00:46;3.38;;;2.00;;
568;SDS011;269;48.884;9.192;2023-02-03T02:03:14;2.38;;;2.13;;
568;SDS011;269;48.884;9.192;2023-02-03T02:05:45;2.33;;;2.03;;
568;SDS011;269;48.884;9.192;2023-02-03T02:08:17;2.13;;;1.98;;
568;SDS011;269;48.884;9.192;2023-02-03T02:10:48;4.00;;;1.98;;
568;SDS011;269;48.884;9.192;2023-02-03T02:13:15;3.88;;;2.20;;
568;SDS011;269;48.884;9.192;2023-02-03T02:15:46;3.00;;;2.30;;
568;SDS011;269;48.884;9.192;2023-02-03T02:18:22;3.97;;;2.50;;
568;SDS011;269;48.884;9.192;2023-02-03T02:24:07;4.47;;;2.40;;
568;SDS011;269;48.884;9.192;2023-02-03T02:27:08;1.85;;;1.75;;
568;SDS011;269;48.884;9.192;2023-02-03T02:32:54;2.20;;;2.00;;
568;SDS011;269;48.884;9.192;2023-02-03T02:35:31;2.50;;;2.00;;
568;SDS011;269;48.884;9.192;2023-02-03T02:38:12;2.80;;;1.83;;
568;SDS011;269;48.884;9.192;2023-02-03T02:40:47;1.90;;;1.77;;
568;SDS011;269;48.884;9.192;2023-02-03T02:43:19;4.28;;;2.40;;
568;SDS011;269;48.884;9.192;2023-02-03T02:45:52;2.00;;;1.90;;
568;SDS011;269;48.884;9.192;2023-02-03T02:48:25;2.15;;;1.75;;
568;SDS011;269;48.884;9.192;2023-02-03T02:50:55;2.35;;;1.52;;
568;SDS011;269;48.884;9.192;2023-02-03T02:53:24;1.85;;;1.67;;
568;SDS011;269;48.884;9.192;2023-02-03T02:55:54;1.50;;;1.40;;
568;SDS011;269;48.884;9.192;2023-02-03T02:58:23;2.67;;;1.95;;
568;SDS011;269;48.884;9.192;2023-02-03T03:00:53;2.60;;;1.48;;
568;SDS011;269;48.884;9.192;2023-02-03T03:03:21;1.70;;;1.60;;
568;SDS011;269;48.884;9.192;2023-02-03T03:05:51;1.50;;;1.40;;
568;SDS011;269;48.884;9.192;2023-02-03T03:08:22;1.30;;;1.13;;
568;SDS011;269;48.884;9.192;2023-02-03T03:10:52;1.40;;;1.20;;
568;SDS011;269;48.884;9.192;2023-02-03T03:13:23;2.30;;;1.30;;
568;SDS011;269;48.884;9.192;2023-02-03T03:15:53;2.20;;;1.00;;
568;SDS011;269;48.884;9.192;2023-02-03T03:18:26;1.00;;;1.00;;
568;SDS011;269;48.884;9.192;2023-02-03T03:20:56;1.23;;;1.13;;
568;SDS011;269;48.884;9.192;2023-02-03T03:23:31;2.17;;;1.30;;
568;SDS011;269;48.884;9.192;2023-02-03T03:26:06;1.17;;;1.02;;
568;SDS011;269;48.884;9.192;2023-02-03T03:28:37;1.25;;;1.15;;
568;SDS011;269;48.884;9.192;2023-02-03T03:31:10;1.10;;;1.00;;
568;SDS011;269;48.884;9.192;2023-02-03T03:33:39;1.33;;;1.23;;
568;SDS011;269;48.884;9.192;2023-02-03T03:36:08;1.30;;;1.10;;
568;SDS011;269;48.884;9.192;2023-02-03T03:38:42;1.88;;;1.40;;
568;SDS011;269;48.884;9.192;2023-02-03T03:41:15;1.30;;;1.20;;
568;SDS011;269;48.884;9.192;2023-02-03T03:43:50;1.88;;;1.20;;
568;SDS011;269;48.884;9.192;2023-02-03T03:46:22;1.00;;;1.00;;
568;SDS011;269;48.884;9.192;2023-02-03T03:48:55;1.10;;;1.00;;
568;SDS011;269;48.884;9.192;2023-02-03T03:51:27;1.20;;;1.10;;
568;SDS011;269;48.884;9.192;2023-02-03T03:53:58;1.27;;;0.73;;
568;SDS011;269;48.884;9.192;2023-02-03T03:56:29;1.75;;;1.10;;
568;SDS011;269;48.884;9.192;2023-02-03T03:59:01;1.25;;;1.00;;
568;SDS011;269;48.884;9.192;2023-02-03T04:01:30;0.93;;;0.80;;
568;SDS011;269;48.884;9.192;2023-02-03T04:03:59;1.00;;;0.90;;
568;SDS011;269;48.884;9.192;2023-02-03T04:06:31;2.80;;;1.15;;
568;SDS011;269;48.884;9.192;2023-02-03T04:08:58;1.20;;;1.10;;
568;SDS011;269;48.884;9.192;2023-02-03T04:11:26;1.42;;;1.00;;
568;SDS011;269;48.884;9.192;2023-02-03T04:14:11;1.15;;;0.90;;
568;SDS011;269;48.884;9.192;2023-02-03T04:16:37;1.20;;;1.10;;
568;SDS011;269;48.884;9.192;2023-02-03T04:19:06;1.67;;;1.17;;
568;SDS011;269;48.884;9.192;2023-02-03T04:21:33;1.20;;;1.10;;
568;SDS011;269;48.884;9.192;2023-02-03T04:24:00;4.55;;;1.20;;
568;SDS011;269;48.884;9.192;2023-02-03T04:26:27;1.20;;;1.00;;
568;SDS011;269;48.884;9.192;2023-02-03T04:28:54;1.30;;;1.20;;
568;SDS011;269;48.884;9.192;2023-02-03T04:31:21;2.30;;;1.40;;
568;SDS011;269;48.884;9.192;2023-02-03T04:33:48;1.45;;;1.35;;
568;SDS011;269;48.884;9.192;2023-02-03T04:36:16;1.75;;;1.20;;
568;SDS011;269;48.884;9.192;2023-02-03T04:38:43;2.17;;;1.40;;
568;SDS011;269;48.884;9.192;2023-02-03T04:41:10;1.40;;;1.30;;
568;SDS011;269;48.884;9.192;2023-02-03T04:43:37;1.83;;;1.40;;
568;SDS011;269;48.884;9.192;2023-02-03T04:46:04;1.60;;;1.50;;
568;SDS011;269;48.884;9.192;2023-02-03T04:48:31;2.95;;;1.65;;
568;SDS011;269;48.884;9.192;2023-02-03T04:50:59;1.60;;;1.50;;
568;SDS011;269;48.884;9.192;2023-02-03T04:53:28;1.50;;;1.40;;
568;SDS011;269;48.884;9.192;2023-02-03T04:55:56;1.13;;;1.02;;
568;SDS011;269;48.884;9.192;2023-02-03T04:58:23;1.30;;;1.20;;
568;SDS011;269;48.884;9.192;2023-02-03T05:00:51;1.63;;;0.98;;
568;SDS011;269;48.884;9.192;2023-02-03T05:03:18;2.95;;;1.15;;
568;SDS011;269;48.884;9.192;2023-02-03T05:05:46;1.20;;;1.10;;
568;SDS011;269;48.884;9.192;2023-02-03T05:08:14;1.40;;;0.90;;
568;SDS011;269;48.884;9.192;2023-02-03T05:10:42;1.20;;;0.80;;
568;SDS011;269;48.884;9.192;2023-02-03T05:13:09;1.67;;;1.13;;
568;SDS011;269;48.884;9.192;2023-02-03T05:15:36;2.03;;;1.05;;
568;SDS011;269;48.884;9.192;2023-02-03T05:18:03;1.65;;;0.93;;
568;SDS011;269;48.884;9.192;2023-02-03T05:20:30;2.35;;;1.10;;
568;SDS011;269;48.884;9.192;2023-02-03T05:22:58;2.25;;;1.40;;
568;SDS011;269;48.884;9.192;2023-02-03T05:25:25;1.20;;;1.10;;
568;SDS011;269;48.884;9.192;2023-02-03T05:27:54;2.40;;;1.55;;
568;SDS011;269;48.884;9.192;2023-02-03T05:30:21;1.33;;;1.00;;
568;SDS011;269;48.884;9.192;2023-02-03T05:32:48;1.55;;;1.10;;
568;SDS011;269;48.884;9.192;2023-02-03T05:35:15;2.03;;;1.30;;
568;SDS011;269;48.884;9.192;2023-02-03T05:37:42;1.95;;;1.30;;
568;SDS011;269;48.884;9.192;2023-02-03T05:40:11;1.40;;;1.30;;
568;SDS011;269;48.884;9.192;2023-02-03T05:42:57;2.88;;;1.63;;
568;SDS011;269;48.884;9.192;2023-02-03T05:45:25;2.80;;;1.90;;
568;SDS011;269;48.884;9.192;2023-02-03T05:47:52;2.28;;;1.33;;
568;SDS011;269;48.884;9.192;2023-02-03T05:50:19;2.33;;;2.13;;
568;SDS011;269;48.884;9.192;2023-02-03T05:52:47;3.53;;;2.00;;
568;SDS011;269;48.884;9.192;2023-02-03T05:55:14;2.42;;;2.20;;
568;SDS011;269;48.884;9.192;2023-02-03T05:57:41;2.72;;;1.95;;
568;SDS011;269;48.884;9.192;2023-02-03T06:00:10;2.83;;;1.75;;
568;SDS011;269;48.884;9.192;2023-02-03T06:02:39;2.80;;;2.33;;
568;SDS011;269;48.884;9.192;2023-02-03T06:05:06;3.05;;;2.00;;
568;SDS011;269;48.884;9.192;2023-02-03T06:07:34;2.20;;;2.00;;
568;SDS011;269;48.884;9.192;2023-02-03T06:10:01;2.28;;;2.17;;
568;SDS011;269;48.884;9.192;2023-02-03T06:12:28;2.15;;;1.95;;
568;SDS011;269;48.884;9.192;2023-02-03T06:14:55;2.13;;;1.88;;
568;SDS011;269;48.884;9.192;2023-02-03T06:17:23;3.63;;;2.03;;
568;SDS011;269;48.884;9.192;2023-02-03T06:19:50;1.75;;;1.65;;
568;SDS011;269;48.884;9.192;2023-02-03T06:22:17;3.00;;;1.60;;
568;SDS011;269;48.884;9.192;2023-02-03T06:24:44;1.90;;;1.70;;
568;SDS011;269;48.884;9.192;2023-02-03T06:27:12;3.58;;;2.00;;
568;SDS011;269;48.884;9.192;2023-02-03T06:29:39;3.00;;;1.75;;
568;SDS011;269;48.884;9.192;2023-02-03T06:32:07;2.20;;;1.73;;
568;SDS011;269;48.884;9.192;2023-02-03T06:34:36;2.38;;;1.77;;
568;SDS011;269;48.884;9.192;2023-02-03T06:37:02;3.80;;;1.92;;
568;SDS011;269;48.884;9.192;2023-02-03T06:39:29;1.95;;;1.80;;
568;SDS011;269;48.884;9.192;2023-02-03T06:41:56;2.42;;;1.65;;
568;SDS011;269;48.884;9.192;2023-02-03T06:44:24;2.60;;;1.77;;
568;SDS011;269;48.884;9.192;2023-02-03T06:46:51;2.65;;;1.95;;
568;SDS011;269;48.884;9.192;2023-02-03T06:49:18;1.85;;;1.75;;
568;SDS011;269;48.884;9.192;2023-02-03T06:51:47;2.70;;;1.88;;
568;SDS011;269;48.884;9.192;2023-02-03T06:54:14;4.30;;;2.08;;
568;SDS011;269;48.884;9.192;2023-02-03T06:56:41;3.15;;;1.98;;
568;SDS011;269;48.884;9.192;2023-02-03T06:59:08;5.32;;;1.95;;
568;SDS011;269;48.884;9.192;2023-02-03T07:01:35;3.42;;;1.95;;
568;SDS011;269;48.884;9.192;2023-02-03T07:04:03;2.85;;;1.50;;
568;SDS011;269;48.884;9.192;2023-02-03T07:06:30;2.03;;;1.70;;
568;SDS011;269;48.884;9.192;2023-02-03T07:09:01;2.10;;;1.80;;
568;SDS011;269;48.884;9.192;2023-02-03T07:11:29;1.67;;;1.40;;
568;SDS011;269;48.884;9.192;2023-02-03T07:13:56;4.30;;;2.13;;
568;SDS011;269;48.884;9.192;2023-02-03T07:16:24;2.08;;;1.67;;
568;SDS011;269;48.884;9.192;2023-02-03T07:18:52;1.77;;;1.55;;
568;SDS011;269;48.884;9.192;2023-02-03T07:21:18;1.73;;;1.63;;
568;SDS011;269;48.884;9.192;2023-02-03T07:23:46;3.85;;;2.15;;
568;SDS011;269;48.884;9.192;2023-02-03T07:26:15;2.80;;;1.80;;
568;SDS011;269;48.884;9.192;2023-02-03T07:28:43;2.85;;;1.80;;
568;SDS011;269;48.884;9.192;2023-02-03T07:31:10;2.88;;;2.10;;
568;SDS011;269;48.884;9.192;2023-02-03T07:33:37;4.13;;;2.10;;
568;SDS011;269;48.884;9.192;2023-02-03T07:36:05;3.75;;;2.00;;
568;SDS011;269;48.884;9.192;2023-02-03T07:38:33;2.70;;;1.70;;
568;SDS011;269;48.884;9.192;2023-02-03T07:41:02;8.57;;;2.85;;
568;SDS011;269;48.884;9.192;2023-02-03T07:43:31;2.25;;;1.65;;
568;SDS011;269;48.884;9.192;2023-02-03T07:45:58;4.80;;;1.50;;
568;SDS011;269;48.884;9.192;2023-02-03T07:48:26;2.72;;;1.50;;
568;SDS011;269;48.884;9.192;2023-02-03T07:50:53;1.85;;;1.30;;
568;SDS011;269;48.884;9.192;2023-02-03T07:53:20;1.70;;;1.35;;
568;SDS011;269;48.884;9.192;2023-02-03T07:55:47;1.90;;;1.80;;
568;SDS011;269;48.884;9.192;2023-02-03T07:58:14;2.10;;;1.90;;
568;SDS011;269;48.884;9.192;2023-02-03T08:00:42;2.80;;;2.60;;
568;SDS011;269;48.884;9.192;2023-02-03T08:03:10;3.95;;;2.20;;
568;SDS011;269;48.884;9.192;2023-02-03T08:05:36;2.47;;;1.70;;
568;SDS011;269;48.884;9.192;2023-02-03T08:08:04;1.98;;;1.80;;
568;SDS011;269;48.884;9.192;2023-02-03T08:10:31;2.55;;;1.48;;
568;SDS011;269;48.884;9.192;2023-02-03T08:12:58;3.50;;;1.38;;
568;SDS011;269;48.884;9.192;2023-02-03T08:15:25;2.17;;;2.08;;
568;SDS011;269;48.884;9.192;2023-02-03T08:17:53;2.60;;;1.70;;
568;SDS011;269;48.884;9.192;2023-02-03T08:20:20;1.80;;;1.70;;
568;SDS011;269;48.884;9.192;2023-02-03T08:22:47;1.50;;;1.40;;
568;SDS011;269;48.884;9.192;2023-02-03T08:25:15;1.70;;;1.60;;
568;SDS011;269;48.884;9.192;2023-02-03T08:27:42;2.28;;;1.70;;
568;SDS011;269;48.884;9.192;2023-02-03T08:30:11;1.80;;;1.30;;
568;SDS011;269;48.884;9.192;2023-02-03T08:32:39;1.38;;;1.27;;
568;SDS011;269;48.884;9.192;2023-02-03T08:35:08;1.73;;;1.50;;
568;SDS011;269;48.884;9.192;2023-02-03T08:37:34;1.58;;;1.48;;
568;SDS011;269;48.884;9.192;2023-02-03T08:40:02;1.98;;;1.50;;
568;SDS011;269;48.884;9.192;2023-02-03T08:42:29;1.30;;;1.20;;
568;SDS011;269;48.884;9.192;2023-02-03T08:44:57;2.33;;;1.60;;
568;SDS011;269;48.884;9.192;2023-02-03T08:47:24;2.00;;;1.30;;
568;SDS011;269;48.884;9.192;2023-02-03T08:49:52;1.65;;;1.48;;
568;SDS011;269;48.884;9.192;2023-02-03T08:52:20;2.17;;;1.30;;
568;SDS011;269;48.884;9.192;2023-02-03T08:54:47;2.00;;;1.88;;
568;SDS011;269;48.884;9.192;2023-02-03T08:57:14;1.58;;;1.35;;
568;SDS011;269;48.884;9.192;2023-02-03T08:59:42;1.70;;;1.58;;
568;SDS011;269;48.884;9.192;2023-02-03T09:02:10;1.80;;;1.60;;
568;SDS011;269;48.884;9.192;2023-02-03T09:04:40;1.40;;;1.30;;
568;SDS011;269;48.884;9.192;2023-02-03T09:07:07;1.95;;;1.65;;
568;SDS011;269;48.884;9.192;2023-02-03T09:09:36;1.40;;;1.30;;
568;SDS011;269;48.884;9.192;2023-02-03T09:12:04;1.70;;;1.55;;
568;SDS011;269;48.884;9.192;2023-02-03T09:14:31;1.50;;;1.40;;
568;SDS011;269;48.884;9.192;2023-02-03T09:16:59;1.33;;;1.20;;
568;SDS011;269;48.884;9.192;2023-02-03T09:19:27;1.40;;;1.10;;
568;SDS011;269;48.884;9.192;2023-02-03T09:21:54;2.10;;;1.40;;
568;SDS011;269;48.884;9.192;2023-02-03T09:24:22;2.50;;;1.30;;
568;SDS011;269;48.884;9.192;2023-02-03T09:26:54;1.70;;;1.60;;
568;SDS011;269;48.884;9.192;2023-02-03T09:29:22;5.53;;;1.15;;
568;SDS011;269;48.884;9.192;2023-02-03T09:31:49;1.50;;;1.02;;
568;SDS011;269;48.884;9.192;2023-02-03T09:34:17;0.93;;;0.82;;
568;SDS011;269;48.884;9.192;2023-02-03T09:36:45;1.00;;;0.90;;
568;SDS011;269;48.884;9.192;2023-02-03T09:39:13;1.00;;;0.82;;
568;SDS011;269;48.884;9.192;2023-02-03T09:41:53;1.33;;;0.98;;
568;SDS011;269;48.884;9.192;2023-02-03T09:44:33;1.20;;;1.00;;
568;SDS011;269;48.884;9.192;2023-02-03T09:47:09;1.90;;;1.10;;
568;SDS011;269;48.884;9.192;2023-02-03T09:49:40;0.93;;;0.82;;
568;SDS011;269;48.884;9.192;2023-02-03T09:52:10;1.90;;;1.23;;
568;SDS011;269;48.884;9.192;2023-02-03T09:54:40;1.02;;;0.93;;
568;SDS011;269;48.884;9.192;2023-02-03T09:57:15;1.67;;;0.90;;
568;SDS011;269;48.884;9.192;2023-02-03T09:59:46;1.23;;;1.13;;
568;SDS011;269;48.884;9.192;2023-02-03T10:02:18;0.80;;;0.80;;
568;SDS011;269;48.884;9.192;2023-02-03T10:04:56;1.25;;;0.80;;
568;SDS011;269;48.884;9.192;2023-02-03T10:07:28;0.80;;;0.80;;
568;SDS011;269;48.884;9.192;2023-02-03T10:10:05;0.75;;;0.73;;
568;SDS011;269;48.884;9.192;2023-02-03T10:12:45;0.85;;;0.85;;
568;SDS011;269;48.884;9.192;2023-02-03T10:15:43;0.80;;;0.70;;
568;SDS011;269;48.884;9.192;2023-02-03T10:18:32;1.40;;;1.20;;
568;SDS011;269;48.884;9.192;2023-02-03T10:21:03;0.93;;;0.88;;
568;SDS011;269;48.884;9.192;2023-02-03T10:23:40;0.95;;;0.85;;
568;SDS011;269;48.884;9.192;2023-02-03T10:26:13;1.55;;;1.00;;
568;SDS011;269;48.884;9.192;2023-02-03T10:28:47;2.20;;;0.80;;
568;SDS011;269;48.884;9.192;2023-02-03T10:31:19;1.17;;;0.73;;
568;SDS011;269;48.884;9.192;2023-02-03T10:33:48;1.33;;;0.90;;
568;SDS011;269;48.884;9.192;2023-02-03T10:36:27;1.13;;;0.80;;
568;SDS011;269;48.884;9.192;2023-02-03T10:39:02;2.45;;;0.90;;
568;SDS011;269;48.884;9.192;2023-02-03T10:41:40;0.88;;;0.80;;
568;SDS011;269;48.884;9.192;2023-02-03T10:44:09;1.08;;;0.98;;
568;SDS011;269;48.884;9.192;2023-02-03T10:46:39;0.80;;;0.70;;
568;SDS011;269;48.884;9.192;2023-02-03T10:49:07;0.82;;;0.82;;
568;SDS011;269;48.884;9.192;2023-02-03T10:51:37;3.58;;;1.05;;
568;SDS011;269;48.884;9.192;2023-02-03T10:54:24;1.00;;;0.82;;
568;SDS011;269;48.884;9.192;2023-02-03T10:56:54;1.63;;;0.88;;
568;SDS011;269;48.884;9.192;2023-02-03T10:59:28;1.73;;;0.85;;
568;SDS011;269;48.884;9.192;2023-02-03T11:01:57;0.80;;;0.73;;
568;SDS011;269;48.884;9.192;2023-02-03T11:04:25;0.65;;;0.65;;
568;SDS011;269;48.884;9.192;2023-02-03T11:06:54;1.15;;;0.80;;
568;SDS011;269;48.884;9.192;2023-02-03T11:09:27;1.00;;;0.88;;
568;SDS011;269;48.884;9.192;2023-02-03T11:12:08;0.73;;;0.73;;
568;SDS011;269;48.884;9.192;2023-02-03T11:14:40;0.90;;;0.70;;
568;SDS011;269;48.884;9.192;2023-02-03T11:17:13;1.33;;;0.80;;
568;SDS011;269;48.884;9.192;2023-02-03T11:19:43;0.80;;;0.75;;
568;SDS011;269;48.884;9.192;2023-02-03T11:22:12;0.90;;;0.80;;
568;SDS011;269;48.884;9.192;2023-02-03T11:24:52;0.68;;;0.68;;
568;SDS011;269;48.884;9.192;2023-02-03T11:27:19;1.08;;;0.60;;
568;SDS011;269;48.884;9.192;2023-02-03T11:29:50;0.90;;;0.80;;
568;SDS011;269;48.884;9.192;2023-02-03T11:32:32;1.08;;;0.90;;
568;SDS011;269;48.884;9.192;2023-02-03T11:35:02;0.70;;;0.70;;
568;SDS011;269;48.884;9.192;2023-02-03T11:37:39;0.98;;;0.70;;
568;SDS011;269;48.884;9.192;2023-02-03T11:43:03;1.23;;;0.70;;
568;SDS011;269;48.884;9.192;2023-02-03T11:45:40;0.80;;;0.70;;
568;SDS011;269;48.884;9.192;2023-02-03T11:48:15;1.00;;;0.98;;
568;SDS011;269;48.884;9.192;2023-02-03T11:50:48;0.80;;;0.80;;
568;SDS011;269;48.884;9.192;2023-02-03T11:53:24;1.33;;;0.70;;
568;SDS011;269;48.884;9.192;2023-02-03T11:56:01;0.88;;;0.80;;
568;SDS011;269;48.884;9.192;2023-02-03T12:01:51;1.05;;;0.75;;
568;SDS011;269;48.884;9.192;2023-02-03T12:04:42;0.80;;;0.70;;
568;SDS011;269;48.884;9.192;2023-02-03T12:07:34;1.02;;;0.70;;
568;SDS011;269;48.884;9.192;2023-02-03T12:10:15;1.25;;;0.80;;
568;SDS011;269;48.884;9.192;2023-02-03T12:12:54;0.65;;;0.63;;
568;SDS011;269;48.884;9.192;2023-02-03T12:15:33;1.10;;;0.57;;
568;SDS011;269;48.884;9.192;2023-02-03T12:18:20;0.60;;;0.60;;
568;SDS011;269;48.884;9.192;2023-02-03T12:21:02;0.60;;;0.60;;
568;SDS011;269;48.884;9.192;2023-02-03T12:23:40;1.02;;;0.75;;
568;SDS011;269;48.884;9.192;2023-02-03T12:26:16;0.70;;;0.70;;
568;SDS011;269;48.884;9.192;2023-02-03T12:28:49;1.85;;;0.90;;
568;SDS011;269;48.884;9.192;2023-02-03T12:31:25;1.35;;;0.80;;
568;SDS011;269;48.884;9.192;2023-02-03T12:34:01;0.80;;;0.70;;
568;SDS011;269;48.884;9.192;2023-02-03T12:36:36;1.52;;;0.90;;
568;SDS011;269;48.884;9.192;2023-02-03T12:39:09;1.27;;;0.70;;
568;SDS011;269;48.884;9.192;2023-02-03T12:41:41;1.00;;;0.80;;
568;SDS011;269;48.884;9.192;2023-02-03T12:44:15;1.00;;;0.80;;
568;SDS011;269;48.884;9.192;2023-02-03T12:46:48;1.00;;;0.90;;
568;SDS011;269;48.884;9.192;2023-02-03T12:49:27;1.55;;;0.70;;
568;SDS011;269;48.884;9.192;2023-02-03T12:52:02;1.10;;;0.90;;
568;SDS011;269;48.884;9.192;2023-02-03T12:54:36;1.38;;;0.80;;
568;SDS011;269;48.884;9.192;2023-02-03T12:57:13;0.75;;;0.75;;
568;SDS011;269;48.884;9.192;2023-02-03T12:59:47;0.90;;;0.90;;
568;SDS011;269;48.884;9.192;2023-02-03T13:02:23;1.10;;;0.85;;
568;SDS011;269;48.884;9.192;2023-02-03T13:04:55;1.02;;;0.93;;
568;SDS011;269;48.884;9.192;2023-02-03T13:07:29;1.30;;;1.02;;
568;SDS011;269;48.884;9.192;2023-02-03T13:10:03;1.23;;;1.10;;
568;SDS011;269;48.884;9.192;2023-02-03T13:12:38;1.05;;;0.95;;
568;SDS011;269;48.884;9.192;2023-02-03T13:15:14;0.80;;;0.80;;
568;SDS011;269;48.884;9.192;2023-02-03T13:17:48;1.42;;;0.70;;
568;SDS011;269;48.884;9.192;2023-02-03T13:20:22;1.88;;;0.90;;
568;SDS011;269;48.884;9.192;2023-02-03T13:22:51;1.10;;;1.00;;
568;SDS011;269;48.884;9.192;2023-02-03T13:25:20;2.05;;;0.80;;
568;SDS011;269;48.884;9.192;2023-02-03T13:27:50;0.90;;;0.70;;
568;SDS011;269;48.884;9.192;2023-02-03T13:33:30;0.70;;;0.70;;
568;SDS011;269;48.884;9.192;2023-02-03T13:39:23;1.95;;;0.80;;
568;SDS011;269;48.884;9.192;2023-02-03T13:42:07;0.90;;;0.90;;
568;SDS011;269;48.884;9.192;2023-02-03T13:44:43;1.10;;;1.00;;
568;SDS011;269;48.884;9.192;2023-02-03T13:47:16;1.05;;;1.05;;
568;SDS011;269;48.884;9.192;2023-02-03T13:49:48;0.80;;;0.80;;
568;SDS011;269;48.884;9.192;2023-02-03T13:52:26;1.00;;;0.90;;
568;SDS011;269;48.884;9.192;2023-02-03T13:54:57;1.08;;;0.82;;
568;SDS011;269;48.884;9.192;2023-02-03T13:57:27;0.80;;;0.80;;
568;SDS011;269;48.884;9.192;2023-02-03T13:59:59;0.90;;;0.80;;
568;SDS011;269;48.884;9.192;2023-02-03T14:02:29;1.30;;;0.77;;
568;SDS011;269;48.884;9.192;2023-02-03T14:05:08;1.00;;;0.90;;
568;SDS011;269;48.884;9.192;2023-02-03T14:23:16;0.70;;;0.70;;
568;SDS011;269;48.884;9.192;2023-02-03T14:25:49;0.75;;;0.60;;
568;SDS011;269;48.884;9.192;2023-02-03T14:28:21;0.85;;;0.70;;
568;SDS011;269;48.884;9.192;2023-02-03T14:31:04;1.23;;;0.80;;
568;SDS011;269;48.884;9.192;2023-02-03T14:36:41;0.73;;;0.73;;
568;SDS011;269;48.884;9.192;2023-02-03T14:45:36;0.90;;;0.80;;
568;SDS011;269;48.884;9.192;2023-02-03T14:48:21;0.60;;;0.60;;
568;SDS011;269;48.884;9.192;2023-02-03T14:51:01;0.90;;;0.70;;
568;SDS011;269;48.884;9.192;2023-02-03T14:56:37;1.67;;;0.80;;
568;SDS011;269;48.884;9.192;2023-02-03T14:59:30;0.75;;;0.60;;
568;SDS011;269;48.884;9.192;2023-02-03T15:02:10;1.15;;;0.73;;
568;SDS011;269;48.884;9.192;2023-02-03T15:04:47;0.80;;;0.80;;
568;SDS011;269;48.884;9.192;2023-02-03T15:07:34;0.80;;;0.60;;
568;SDS011;269;48.884;9.192;2023-02-03T15:10:08;1.27;;;0.70;;
568;SDS011;269;48.884;9.192;2023-02-03T15:12:42;1.30;;;0.80;;
568;SDS011;269;48.884;9.192;2023-02-03T15:15:12;0.90;;;0.80;;
568;SDS011;269;48.884;9.192;2023-02-03T15:17:48;2.22;;;0.80;;
568;SDS011;269;48.884;9.192;2023-02-03T15:20:26;0.70;;;0.63;;
568;SDS011;269;48.884;9.192;2023-02-03T15:22:58;0.85;;;0.73;;
568;SDS011;269;48.884;9.192;2023-02-03T15:25:25;1.10;;;0.70;;
568;SDS011;269;48.884;9.192;2023-02-03T15:28:08;1.42;;;0.90;;
568;SDS011;269;48.884;9.192;2023-02-03T15:30:37;0.70;;;0.60;;
568;SDS011;269;48.884;9.192;2023-02-03T15:33:08;0.77;;;0.77;;
568;SDS011;269;48.884;9.192;2023-02-03T15:35:39;0.93;;;0.82;;
568;SDS011;269;48.884;9.192;2023-02-03T15:38:10;1.85;;;0.75;;
568;SDS011;269;48.884;9.192;2023-02-03T15:40:41;1.85;;;0.80;;
568;SDS011;269;48.884;9.192;2023-02-03T15:43:12;0.80;;;0.68;;
568;SDS011;269;48.884;9.192;2023-02-03T15:45:46;0.70;;;0.60;;
568;SDS011;269;48.884;9.192;2023-02-03T15:48:25;1.02;;;0.70;;
568;SDS011;269;48.884;9.192;2023-02-03T15:50:59;0.90;;;0.85;;
568;SDS011;269;48.884;9.192;2023-02-03T15:53:32;0.80;;;0.80;;
568;SDS011;269;48.884;9.192;2023-02-03T15:56:02;0.82;;;0.80;;
568;SDS011;269;48.884;9.192;2023-02-03T15:58:31;0.90;;;0.80;;
568;SDS011;269;48.884;9.192;2023-02-03T16:01:07;1.10;;;1.00;;
568;SDS011;269;48.884;9.192;2023-02-03T16:03:41;0.90;;;0.80;;
568;SDS011;269;48.884;9.192;2023-02-03T16:06:12;0.80;;;0.68;;
568;SDS011;269;48.884;9.192;2023-02-03T16:08:43;0.98;;;0.93;;
568;SDS011;269;48.884;9.192;2023-02-03T16:11:26;1.10;;;1.00;;
568;SDS011;269;48.884;9.192;2023-02-03T16:13:56;1.35;;;0.90;;
568;SDS011;269;48.884;9.192;2023-02-03T16:16:26;1.02;;;1.02;;
568;SDS011;269;48.884;9.192;2023-02-03T16:18:57;1.30;;;1.20;;
568;SDS011;269;48.884;9.192;2023-02-03T16:21:29;1.52;;;1.20;;
568;SDS011;269;48.884;9.192;2023-02-03T16:23:59;1.70;;;1.50;;
568;SDS011;269;48.884;9.192;2023-02-03T16:26:26;1.00;;;0.90;;
568;SDS011;269;48.884;9.192;2023-02-03T16:31:56;0.90;;;0.90;;
568;SDS011;269;48.884;9.192;2023-02-03T16:34:42;1.05;;;0.90;;
568;SDS011;269;48.884;9.192;2023-02-03T16:37:28;1.00;;;1.00;;
568;SDS011;269;48.884;9.192;2023-02-03T16:40:16;0.98;;;0.98;;
568;SDS011;269;48.884;9.192;2023-02-03T16:43:02;2.75;;;0.93;;
568;SDS011;269;48.884;9.192;2023-02-03T16:45:50;0.90;;;0.90;;
568;SDS011;269;48.884;9.192;2023-02-03T16:48:38;0.90;;;0.90;;
568;SDS011;269;48.884;9.192;2023-02-03T16:51:24;1.23;;;1.08;;
568;SDS011;269;48.884;9.192;2023-02-03T16:53:58;1.25;;;1.10;;
568;SDS011;269;48.884;9.192;2023-02-03T16:56:25;1.58;;;0.90;;
568;SDS011;269;48.884;9.192;2023-02-03T16:58:52;0.88;;;0.80;;
568;SDS011;269;48.884;9.192;2023-02-03T17:01:19;1.02;;;0.80;;